sensor_id;sensor_type;location;lat;lon;timestamp;P1;durP1;ratioP1;P2;durP2;ratioP2
63536;SDS011;49686;51.880;5.632;2022-09-01T00:02:28;2.13;;;1.10;;
63536;SDS011;49686;51.880;5.632;2022-09-01T00:04:57;3.40;;;1.10;;
63536;SDS011;49686;51.880;5.632;2022-09-01T00:07:24;1.65;;;1.33;;
63536;SDS011;49686;51.880;5.632;2022-09-01T00:09:52;2.47;;;1.23;;
63536;SDS011;49686;51.880;5.632;2022-09-01T00:12:19;1.65;;;1.13;;
63536;SDS011;49686;51.880;5.632;2022-09-01T00:14:45;1.27;;;1.17;;
63536;SDS011;49686;51.880;5.632;2022-09-01T00:17:13;3.55;;;1.70;;
63536;SDS011;49686;51.880;5.632;2022-09-01T00:19:40;1.42;;;1.20;;
63536;SDS011;49686;51.880;5.632;2022-09-01T00:22:08;3.60;;;1.35;;
63536;SDS011;49686;51.880;5.632;2022-09-01T00:24:35;1.83;;;1.23;;
63536;SDS011;49686;51.880;5.632;2022-09-01T00:27:02;1.42;;;1.20;;
63536;SDS011;49686;51.880;5.632;2022-09-01T00:29:29;3.28;;;1.30;;
63536;SDS011;49686;51.880;5.632;2022-09-01T00:31:57;3.90;;;1.45;;
63536;SDS011;49686;51.880;5.632;2022-09-01T00:34:24;1.80;;;1.27;;
63536;SDS011;49686;51.880;5.632;2022-09-01T00:36:51;6.93;;;1.40;;
63536;SDS011;49686;51.880;5.632;2022-09-01T00:39:20;2.47;;;1.35;;
63536;SDS011;49686;51.880;5.632;2022-09-01T00:41:47;3.67;;;1.42;;
63536;SDS011;49686;51.880;5.632;2022-09-01T00:44:14;1.20;;;1.10;;
63536;SDS011;49686;51.880;5.632;2022-09-01T00:46:44;3.25;;;1.50;;
63536;SDS011;49686;51.880;5.632;2022-09-01T00:49:21;5.25;;;1.40;;
63536;SDS011;49686;51.880;5.632;2022-09-01T00:51:54;2.28;;;1.60;;
63536;SDS011;49686;51.880;5.632;2022-09-01T00:54:28;1.52;;;1.42;;
63536;SDS011;49686;51.880;5.632;2022-09-01T00:56:58;2.00;;;1.40;;
63536;SDS011;49686;51.880;5.632;2022-09-01T00:59:27;1.42;;;1.30;;
63536;SDS011;49686;51.880;5.632;2022-09-01T01:01:54;3.85;;;1.45;;
63536;SDS011;49686;51.880;5.632;2022-09-01T01:04:22;4.07;;;1.50;;
63536;SDS011;49686;51.880;5.632;2022-09-01T01:06:50;1.50;;;1.20;;
63536;SDS011;49686;51.880;5.632;2022-09-01T01:09:20;3.50;;;1.60;;
63536;SDS011;49686;51.880;5.632;2022-09-01T01:11:49;3.63;;;1.50;;
63536;SDS011;49686;51.880;5.632;2022-09-01T01:14:17;2.72;;;1.40;;
63536;SDS011;49686;51.880;5.632;2022-09-01T01:16:44;2.78;;;1.92;;
63536;SDS011;49686;51.880;5.632;2022-09-01T01:19:15;3.92;;;1.50;;
63536;SDS011;49686;51.880;5.632;2022-09-01T01:21:49;2.35;;;1.50;;
63536;SDS011;49686;51.880;5.632;2022-09-01T01:24:23;5.00;;;1.95;;
63536;SDS011;49686;51.880;5.632;2022-09-01T01:26:51;2.35;;;1.63;;
63536;SDS011;49686;51.880;5.632;2022-09-01T01:29:19;5.20;;;1.83;;
63536;SDS011;49686;51.880;5.632;2022-09-01T01:31:46;3.67;;;1.27;;
63536;SDS011;49686;51.880;5.632;2022-09-01T01:34:13;2.97;;;1.70;;
63536;SDS011;49686;51.880;5.632;2022-09-01T01:36:40;2.35;;;2.05;;
63536;SDS011;49686;51.880;5.632;2022-09-01T01:39:08;3.35;;;1.70;;
63536;SDS011;49686;51.880;5.632;2022-09-01T01:41:40;4.10;;;1.73;;
63536;SDS011;49686;51.880;5.632;2022-09-01T01:44:08;3.25;;;1.67;;
63536;SDS011;49686;51.880;5.632;2022-09-01T01:46:39;2.58;;;1.70;;
63536;SDS011;49686;51.880;5.632;2022-09-01T01:49:08;3.65;;;1.67;;
63536;SDS011;49686;51.880;5.632;2022-09-01T01:51:36;1.80;;;1.50;;
63536;SDS011;49686;51.880;5.632;2022-09-01T01:54:03;4.28;;;1.63;;
63536;SDS011;49686;51.880;5.632;2022-09-01T01:56:31;2.42;;;1.60;;
63536;SDS011;49686;51.880;5.632;2022-09-01T01:59:00;1.85;;;1.55;;
63536;SDS011;49686;51.880;5.632;2022-09-01T02:01:27;3.35;;;1.67;;
63536;SDS011;49686;51.880;5.632;2022-09-01T02:03:56;2.95;;;1.55;;
63536;SDS011;49686;51.880;5.632;2022-09-01T02:06:26;3.40;;;1.95;;
63536;SDS011;49686;51.880;5.632;2022-09-01T02:08:54;2.28;;;1.50;;
63536;SDS011;49686;51.880;5.632;2022-09-01T02:11:23;5.38;;;1.65;;
63536;SDS011;49686;51.880;5.632;2022-09-01T02:13:50;2.13;;;1.60;;
63536;SDS011;49686;51.880;5.632;2022-09-01T02:16:21;3.97;;;1.80;;
63536;SDS011;49686;51.880;5.632;2022-09-01T02:18:49;1.88;;;1.42;;
63536;SDS011;49686;51.880;5.632;2022-09-01T02:21:17;3.42;;;1.60;;
63536;SDS011;49686;51.880;5.632;2022-09-01T02:23:46;4.45;;;1.50;;
63536;SDS011;49686;51.880;5.632;2022-09-01T02:26:14;2.58;;;1.80;;
63536;SDS011;49686;51.880;5.632;2022-09-01T02:28:45;3.72;;;1.70;;
63536;SDS011;49686;51.880;5.632;2022-09-01T02:31:21;3.35;;;2.10;;
63536;SDS011;49686;51.880;5.632;2022-09-01T02:33:48;2.70;;;1.63;;
63536;SDS011;49686;51.880;5.632;2022-09-01T02:36:16;1.98;;;1.70;;
63536;SDS011;49686;51.880;5.632;2022-09-01T02:38:44;8.32;;;2.65;;
63536;SDS011;49686;51.880;5.632;2022-09-01T02:41:20;3.67;;;2.00;;
63536;SDS011;49686;51.880;5.632;2022-09-01T02:43:48;4.22;;;1.80;;
63536;SDS011;49686;51.880;5.632;2022-09-01T02:46:15;2.58;;;1.58;;
63536;SDS011;49686;51.880;5.632;2022-09-01T02:48:44;2.20;;;1.70;;
63536;SDS011;49686;51.880;5.632;2022-09-01T02:51:13;2.38;;;1.60;;
63536;SDS011;49686;51.880;5.632;2022-09-01T02:56:09;2.70;;;1.67;;
63536;SDS011;49686;51.880;5.632;2022-09-01T02:58:37;4.63;;;1.50;;
63536;SDS011;49686;51.880;5.632;2022-09-01T03:01:09;2.47;;;1.90;;
63536;SDS011;49686;51.880;5.632;2022-09-01T03:03:39;5.18;;;2.08;;
63536;SDS011;49686;51.880;5.632;2022-09-01T03:06:07;2.70;;;2.50;;
63536;SDS011;49686;51.880;5.632;2022-09-01T03:08:34;2.43;;;1.30;;
63536;SDS011;49686;51.880;5.632;2022-09-01T03:11:02;3.17;;;1.50;;
63536;SDS011;49686;51.880;5.632;2022-09-01T03:13:29;1.90;;;1.40;;
63536;SDS011;49686;51.880;5.632;2022-09-01T03:15:55;2.08;;;1.45;;
63536;SDS011;49686;51.880;5.632;2022-09-01T03:18:23;2.45;;;1.77;;
63536;SDS011;49686;51.880;5.632;2022-09-01T03:20:50;3.08;;;1.63;;
63536;SDS011;49686;51.880;5.632;2022-09-01T03:23:18;2.17;;;1.50;;
63536;SDS011;49686;51.880;5.632;2022-09-01T03:25:46;2.15;;;1.65;;
63536;SDS011;49686;51.880;5.632;2022-09-01T03:28:13;3.53;;;2.35;;
63536;SDS011;49686;51.880;5.632;2022-09-01T03:30:43;3.17;;;1.60;;
63536;SDS011;49686;51.880;5.632;2022-09-01T03:33:12;3.47;;;1.45;;
63536;SDS011;49686;51.880;5.632;2022-09-01T03:35:39;4.93;;;1.90;;
63536;SDS011;49686;51.880;5.632;2022-09-01T03:38:07;2.17;;;1.55;;
63536;SDS011;49686;51.880;5.632;2022-09-01T03:40:37;2.35;;;2.15;;
63536;SDS011;49686;51.880;5.632;2022-09-01T03:43:07;2.40;;;1.38;;
63536;SDS011;49686;51.880;5.632;2022-09-01T03:45:35;2.25;;;1.55;;
63536;SDS011;49686;51.880;5.632;2022-09-01T03:48:02;2.50;;;1.63;;
63536;SDS011;49686;51.880;5.632;2022-09-01T03:50:29;1.80;;;1.70;;
63536;SDS011;49686;51.880;5.632;2022-09-01T03:52:57;1.83;;;1.60;;
63536;SDS011;49686;51.880;5.632;2022-09-01T03:55:26;2.97;;;1.45;;
63536;SDS011;49686;51.880;5.632;2022-09-01T03:57:58;2.22;;;2.03;;
63536;SDS011;49686;51.880;5.632;2022-09-01T04:00:27;4.97;;;1.50;;
63536;SDS011;49686;51.880;5.632;2022-09-01T04:02:55;1.88;;;1.70;;
63536;SDS011;49686;51.880;5.632;2022-09-01T04:05:24;3.60;;;2.40;;
63536;SDS011;49686;51.880;5.632;2022-09-01T04:07:53;5.22;;;1.50;;
63536;SDS011;49686;51.880;5.632;2022-09-01T04:10:22;1.92;;;1.70;;
63536;SDS011;49686;51.880;5.632;2022-09-01T04:12:49;5.00;;;1.80;;
63536;SDS011;49686;51.880;5.632;2022-09-01T04:15:18;3.35;;;2.10;;
63536;SDS011;49686;51.880;5.632;2022-09-01T04:17:45;3.10;;;2.38;;
63536;SDS011;49686;51.880;5.632;2022-09-01T04:20:12;3.15;;;2.83;;
63536;SDS011;49686;51.880;5.632;2022-09-01T04:22:39;2.95;;;1.80;;
63536;SDS011;49686;51.880;5.632;2022-09-01T04:25:08;2.97;;;2.10;;
63536;SDS011;49686;51.880;5.632;2022-09-01T04:27:36;2.83;;;2.63;;
63536;SDS011;49686;51.880;5.632;2022-09-01T04:30:03;2.22;;;1.70;;
63536;SDS011;49686;51.880;5.632;2022-09-01T04:32:34;3.47;;;1.90;;
63536;SDS011;49686;51.880;5.632;2022-09-01T04:37:29;2.33;;;1.50;;
63536;SDS011;49686;51.880;5.632;2022-09-01T04:39:56;4.28;;;1.70;;
63536;SDS011;49686;51.880;5.632;2022-09-01T04:42:24;3.38;;;1.83;;
63536;SDS011;49686;51.880;5.632;2022-09-01T04:47:20;3.85;;;1.70;;
63536;SDS011;49686;51.880;5.632;2022-09-01T04:49:49;3.75;;;1.55;;
63536;SDS011;49686;51.880;5.632;2022-09-01T04:52:16;3.97;;;1.95;;
63536;SDS011;49686;51.880;5.632;2022-09-01T04:54:43;6.68;;;1.80;;
63536;SDS011;49686;51.880;5.632;2022-09-01T04:57:10;3.72;;;2.00;;
63536;SDS011;49686;51.880;5.632;2022-09-01T04:59:37;3.03;;;1.80;;
63536;SDS011;49686;51.880;5.632;2022-09-01T05:02:03;5.28;;;2.58;;
63536;SDS011;49686;51.880;5.632;2022-09-01T05:04:31;3.05;;;1.60;;
63536;SDS011;49686;51.880;5.632;2022-09-01T05:06:59;3.13;;;1.70;;
63536;SDS011;49686;51.880;5.632;2022-09-01T05:09:28;2.20;;;1.75;;
63536;SDS011;49686;51.880;5.632;2022-09-01T05:11:57;4.40;;;1.90;;
63536;SDS011;49686;51.880;5.632;2022-09-01T05:14:24;3.30;;;1.90;;
63536;SDS011;49686;51.880;5.632;2022-09-01T05:16:54;5.07;;;2.42;;
63536;SDS011;49686;51.880;5.632;2022-09-01T05:19:23;3.15;;;1.95;;
63536;SDS011;49686;51.880;5.632;2022-09-01T05:21:50;3.38;;;1.60;;
63536;SDS011;49686;51.880;5.632;2022-09-01T05:24:18;3.67;;;1.90;;
63536;SDS011;49686;51.880;5.632;2022-09-01T05:26:46;4.82;;;1.98;;
63536;SDS011;49686;51.880;5.632;2022-09-01T05:29:13;2.63;;;1.92;;
63536;SDS011;49686;51.880;5.632;2022-09-01T05:31:41;2.70;;;1.90;;
63536;SDS011;49686;51.880;5.632;2022-09-01T05:34:10;2.90;;;1.90;;
63536;SDS011;49686;51.880;5.632;2022-09-01T05:39:07;7.00;;;2.17;;
63536;SDS011;49686;51.880;5.632;2022-09-01T05:41:36;2.75;;;2.45;;
63536;SDS011;49686;51.880;5.632;2022-09-01T05:44:03;2.95;;;2.40;;
63536;SDS011;49686;51.880;5.632;2022-09-01T05:46:30;2.50;;;1.90;;
63536;SDS011;49686;51.880;5.632;2022-09-01T05:48:57;2.40;;;1.88;;
63536;SDS011;49686;51.880;5.632;2022-09-01T05:51:26;2.50;;;2.20;;
63536;SDS011;49686;51.880;5.632;2022-09-01T05:54:12;2.45;;;1.95;;
63536;SDS011;49686;51.880;5.632;2022-09-01T05:56:40;4.15;;;2.40;;
63536;SDS011;49686;51.880;5.632;2022-09-01T05:59:09;5.78;;;1.77;;
63536;SDS011;49686;51.880;5.632;2022-09-01T06:01:53;4.90;;;2.30;;
63536;SDS011;49686;51.880;5.632;2022-09-01T06:04:21;3.28;;;2.10;;
63536;SDS011;49686;51.880;5.632;2022-09-01T06:06:49;3.00;;;1.80;;
63536;SDS011;49686;51.880;5.632;2022-09-01T06:09:36;4.65;;;1.70;;
63536;SDS011;49686;51.880;5.632;2022-09-01T06:12:05;7.35;;;2.05;;
63536;SDS011;49686;51.880;5.632;2022-09-01T06:14:32;2.92;;;1.77;;
63536;SDS011;49686;51.880;5.632;2022-09-01T06:17:00;4.50;;;1.90;;
63536;SDS011;49686;51.880;5.632;2022-09-01T06:19:27;5.25;;;1.88;;
63536;SDS011;49686;51.880;5.632;2022-09-01T06:21:55;3.65;;;1.83;;
63536;SDS011;49686;51.880;5.632;2022-09-01T06:24:23;8.00;;;1.88;;
63536;SDS011;49686;51.880;5.632;2022-09-01T06:26:50;3.28;;;1.60;;
63536;SDS011;49686;51.880;5.632;2022-09-01T06:29:18;2.63;;;1.27;;
63536;SDS011;49686;51.880;5.632;2022-09-01T06:31:46;4.75;;;1.70;;
63536;SDS011;49686;51.880;5.632;2022-09-01T06:34:13;3.70;;;1.70;;
63536;SDS011;49686;51.880;5.632;2022-09-01T06:36:41;6.47;;;1.48;;
63536;SDS011;49686;51.880;5.632;2022-09-01T06:39:08;2.42;;;1.23;;
63536;SDS011;49686;51.880;5.632;2022-09-01T06:41:35;4.80;;;1.55;;
63536;SDS011;49686;51.880;5.632;2022-09-01T06:44:02;5.22;;;1.40;;
63536;SDS011;49686;51.880;5.632;2022-09-01T06:46:31;3.50;;;1.40;;
63536;SDS011;49686;51.880;5.632;2022-09-01T06:48:57;4.88;;;1.58;;
63536;SDS011;49686;51.880;5.632;2022-09-01T06:51:25;2.45;;;1.40;;
63536;SDS011;49686;51.880;5.632;2022-09-01T06:53:54;3.03;;;1.52;;
63536;SDS011;49686;51.880;5.632;2022-09-01T06:56:21;3.30;;;1.40;;
63536;SDS011;49686;51.880;5.632;2022-09-01T06:58:51;5.20;;;1.38;;
63536;SDS011;49686;51.880;5.632;2022-09-01T07:01:19;1.80;;;1.20;;
63536;SDS011;49686;51.880;5.632;2022-09-01T07:03:49;4.50;;;1.73;;
63536;SDS011;49686;51.880;5.632;2022-09-01T07:06:18;4.03;;;1.40;;
63536;SDS011;49686;51.880;5.632;2022-09-01T07:09:06;5.63;;;1.80;;
63536;SDS011;49686;51.880;5.632;2022-09-01T07:11:53;7.88;;;1.48;;
63536;SDS011;49686;51.880;5.632;2022-09-01T07:17:46;3.67;;;2.20;;
63536;SDS011;49686;51.880;5.632;2022-09-01T07:20:16;4.88;;;1.83;;
63536;SDS011;49686;51.880;5.632;2022-09-01T07:22:53;6.20;;;2.05;;
63536;SDS011;49686;51.880;5.632;2022-09-01T07:25:43;2.33;;;1.25;;
63536;SDS011;49686;51.880;5.632;2022-09-01T07:28:27;3.88;;;1.95;;
63536;SDS011;49686;51.880;5.632;2022-09-01T07:31:02;3.78;;;1.20;;
63536;SDS011;49686;51.880;5.632;2022-09-01T07:33:50;2.70;;;1.40;;
63536;SDS011;49686;51.880;5.632;2022-09-01T07:36:21;5.90;;;1.70;;
63536;SDS011;49686;51.880;5.632;2022-09-01T07:38:53;3.53;;;2.15;;
63536;SDS011;49686;51.880;5.632;2022-09-01T07:41:40;3.67;;;2.00;;
63536;SDS011;49686;51.880;5.632;2022-09-01T07:44:29;3.40;;;1.95;;
63536;SDS011;49686;51.880;5.632;2022-09-01T07:46:57;4.10;;;1.60;;
63536;SDS011;49686;51.880;5.632;2022-09-01T07:49:43;2.78;;;1.63;;
63536;SDS011;49686;51.880;5.632;2022-09-01T07:55:01;4.05;;;1.23;;
63536;SDS011;49686;51.880;5.632;2022-09-01T07:57:28;3.85;;;1.60;;
63536;SDS011;49686;51.880;5.632;2022-09-01T07:59:56;7.22;;;1.50;;
63536;SDS011;49686;51.880;5.632;2022-09-01T08:02:23;3.53;;;1.73;;
63536;SDS011;49686;51.880;5.632;2022-09-01T08:04:50;5.93;;;2.55;;
63536;SDS011;49686;51.880;5.632;2022-09-01T08:07:17;8.57;;;2.05;;
63536;SDS011;49686;51.880;5.632;2022-09-01T08:09:45;3.20;;;1.20;;
63536;SDS011;49686;51.880;5.632;2022-09-01T08:12:13;1.92;;;0.98;;
63536;SDS011;49686;51.880;5.632;2022-09-01T08:14:40;2.95;;;1.42;;
63536;SDS011;49686;51.880;5.632;2022-09-01T08:17:08;1.70;;;1.33;;
63536;SDS011;49686;51.880;5.632;2022-09-01T08:19:58;3.63;;;1.60;;
63536;SDS011;49686;51.880;5.632;2022-09-01T08:22:25;2.85;;;1.33;;
63536;SDS011;49686;51.880;5.632;2022-09-01T08:24:53;5.88;;;1.88;;
63536;SDS011;49686;51.880;5.632;2022-09-01T08:27:22;2.97;;;1.30;;
63536;SDS011;49686;51.880;5.632;2022-09-01T08:29:48;6.60;;;1.30;;
63536;SDS011;49686;51.880;5.632;2022-09-01T08:32:15;1.20;;;0.93;;
63536;SDS011;49686;51.880;5.632;2022-09-01T08:34:43;5.22;;;1.50;;
63536;SDS011;49686;51.880;5.632;2022-09-01T08:37:09;3.33;;;0.95;;
63536;SDS011;49686;51.880;5.632;2022-09-01T08:39:36;3.47;;;1.48;;
63536;SDS011;49686;51.880;5.632;2022-09-01T08:42:08;2.20;;;0.85;;
63536;SDS011;49686;51.880;5.632;2022-09-01T08:44:43;3.85;;;1.10;;
63536;SDS011;49686;51.880;5.632;2022-09-01T08:47:18;5.18;;;2.13;;
63536;SDS011;49686;51.880;5.632;2022-09-01T08:49:57;7.60;;;1.20;;
63536;SDS011;49686;51.880;5.632;2022-09-01T08:52:26;4.15;;;1.10;;
63536;SDS011;49686;51.880;5.632;2022-09-01T08:54:57;3.13;;;1.10;;
63536;SDS011;49686;51.880;5.632;2022-09-01T08:57:31;3.25;;;1.40;;
63536;SDS011;49686;51.880;5.632;2022-09-01T09:00:00;5.15;;;1.00;;
63536;SDS011;49686;51.880;5.632;2022-09-01T09:02:32;4.55;;;1.45;;
63536;SDS011;49686;51.880;5.632;2022-09-01T09:05:20;2.63;;;1.17;;
63536;SDS011;49686;51.880;5.632;2022-09-01T09:08:03;1.35;;;1.00;;
63536;SDS011;49686;51.880;5.632;2022-09-01T09:10:45;4.03;;;0.90;;
63536;SDS011;49686;51.880;5.632;2022-09-01T09:13:19;8.55;;;0.93;;
63536;SDS011;49686;51.880;5.632;2022-09-01T09:15:50;5.43;;;1.10;;
63536;SDS011;49686;51.880;5.632;2022-09-01T09:18:35;3.17;;;1.10;;
63536;SDS011;49686;51.880;5.632;2022-09-01T09:21:08;6.18;;;1.13;;
63536;SDS011;49686;51.880;5.632;2022-09-01T09:23:40;5.35;;;0.82;;
63536;SDS011;49686;51.880;5.632;2022-09-01T09:26:11;1.25;;;1.10;;
63536;SDS011;49686;51.880;5.632;2022-09-01T09:28:43;5.15;;;0.90;;
63536;SDS011;49686;51.880;5.632;2022-09-01T09:33:51;5.18;;;1.10;;
63536;SDS011;49686;51.880;5.632;2022-09-01T09:36:20;3.40;;;1.20;;
63536;SDS011;49686;51.880;5.632;2022-09-01T09:41:38;2.85;;;1.40;;
63536;SDS011;49686;51.880;5.632;2022-09-01T09:44:18;4.82;;;0.90;;
63536;SDS011;49686;51.880;5.632;2022-09-01T09:46:51;5.18;;;1.17;;
63536;SDS011;49686;51.880;5.632;2022-09-01T09:49:18;4.95;;;1.13;;
63536;SDS011;49686;51.880;5.632;2022-09-01T09:52:14;1.40;;;0.93;;
63536;SDS011;49686;51.880;5.632;2022-09-01T09:54:56;4.55;;;1.00;;
63536;SDS011;49686;51.880;5.632;2022-09-01T09:57:26;3.42;;;1.42;;
63536;SDS011;49686;51.880;5.632;2022-09-01T09:59:58;2.85;;;1.00;;
63536;SDS011;49686;51.880;5.632;2022-09-01T10:02:30;2.78;;;1.10;;
63536;SDS011;49686;51.880;5.632;2022-09-01T10:05:00;6.22;;;1.10;;
63536;SDS011;49686;51.880;5.632;2022-09-01T10:07:47;4.05;;;1.27;;
63536;SDS011;49686;51.880;5.632;2022-09-01T10:10:23;1.20;;;1.10;;
63536;SDS011;49686;51.880;5.632;2022-09-01T10:12:55;1.33;;;0.80;;
63536;SDS011;49686;51.880;5.632;2022-09-01T10:15:24;3.78;;;1.48;;
63536;SDS011;49686;51.880;5.632;2022-09-01T10:17:58;0.82;;;0.60;;
63536;SDS011;49686;51.880;5.632;2022-09-01T10:20:52;1.77;;;0.90;;
63536;SDS011;49686;51.880;5.632;2022-09-01T10:23:24;2.00;;;0.80;;
63536;SDS011;49686;51.880;5.632;2022-09-01T10:25:57;6.13;;;0.90;;
63536;SDS011;49686;51.880;5.632;2022-09-01T10:28:32;2.95;;;0.75;;
63536;SDS011;49686;51.880;5.632;2022-09-01T10:31:04;1.02;;;0.80;;
63536;SDS011;49686;51.880;5.632;2022-09-01T10:33:35;0.75;;;0.70;;
63536;SDS011;49686;51.880;5.632;2022-09-01T10:36:02;0.75;;;0.70;;
63536;SDS011;49686;51.880;5.632;2022-09-01T10:38:33;1.77;;;0.75;;
63536;SDS011;49686;51.880;5.632;2022-09-01T10:41:00;1.52;;;0.90;;
63536;SDS011;49686;51.880;5.632;2022-09-01T10:43:34;3.38;;;0.93;;
63536;SDS011;49686;51.880;5.632;2022-09-01T10:46:39;3.80;;;0.70;;
63536;SDS011;49686;51.880;5.632;2022-09-01T10:55:22;4.20;;;1.00;;
63536;SDS011;49686;51.880;5.632;2022-09-01T10:57:59;1.33;;;0.80;;
63536;SDS011;49686;51.880;5.632;2022-09-01T11:00:58;2.25;;;0.90;;
63536;SDS011;49686;51.880;5.632;2022-09-01T11:03:51;4.72;;;0.82;;
63536;SDS011;49686;51.880;5.632;2022-09-01T11:06:32;1.10;;;0.80;;
63536;SDS011;49686;51.880;5.632;2022-09-01T11:09:31;3.17;;;0.70;;
63536;SDS011;49686;51.880;5.632;2022-09-01T11:18:00;2.88;;;0.80;;
63536;SDS011;49686;51.880;5.632;2022-09-01T11:20:30;2.90;;;0.70;;
63536;SDS011;49686;51.880;5.632;2022-09-01T11:23:00;1.77;;;1.05;;
63536;SDS011;49686;51.880;5.632;2022-09-01T11:25:35;3.92;;;0.77;;
63536;SDS011;49686;51.880;5.632;2022-09-01T11:28:09;1.08;;;0.70;;
63536;SDS011;49686;51.880;5.632;2022-09-01T11:30:52;2.72;;;0.60;;
63536;SDS011;49686;51.880;5.632;2022-09-01T11:33:25;2.88;;;1.15;;
63536;SDS011;49686;51.880;5.632;2022-09-01T11:36:12;2.65;;;0.73;;
63536;SDS011;49686;51.880;5.632;2022-09-01T11:38:46;0.85;;;0.60;;
63536;SDS011;49686;51.880;5.632;2022-09-01T11:41:19;2.85;;;0.80;;
63536;SDS011;49686;51.880;5.632;2022-09-01T11:43:47;3.42;;;0.70;;
63536;SDS011;49686;51.880;5.632;2022-09-01T11:46:18;1.00;;;0.90;;
63536;SDS011;49686;51.880;5.632;2022-09-01T11:48:50;1.20;;;0.70;;
63536;SDS011;49686;51.880;5.632;2022-09-01T11:51:19;0.98;;;0.52;;
63536;SDS011;49686;51.880;5.632;2022-09-01T11:56:15;3.72;;;0.73;;
63536;SDS011;49686;51.880;5.632;2022-09-01T11:58:44;3.00;;;0.80;;
63536;SDS011;49686;51.880;5.632;2022-09-01T12:03:41;1.25;;;0.70;;
63536;SDS011;49686;51.880;5.632;2022-09-01T12:06:11;1.05;;;0.80;;
63536;SDS011;49686;51.880;5.632;2022-09-01T12:08:51;3.97;;;0.80;;
63536;SDS011;49686;51.880;5.632;2022-09-01T12:11:22;1.05;;;0.70;;
63536;SDS011;49686;51.880;5.632;2022-09-01T12:13:56;2.15;;;0.80;;
63536;SDS011;49686;51.880;5.632;2022-09-01T12:16:26;1.67;;;0.68;;
63536;SDS011;49686;51.880;5.632;2022-09-01T12:18:54;1.98;;;0.93;;
63536;SDS011;49686;51.880;5.632;2022-09-01T12:21:24;3.33;;;1.25;;
63536;SDS011;49686;51.880;5.632;2022-09-01T12:24:10;1.70;;;0.60;;
63536;SDS011;49686;51.880;5.632;2022-09-01T12:26:40;2.03;;;0.70;;
63536;SDS011;49686;51.880;5.632;2022-09-01T12:29:07;4.97;;;1.13;;
63536;SDS011;49686;51.880;5.632;2022-09-01T12:31:35;6.40;;;0.90;;
63536;SDS011;49686;51.880;5.632;2022-09-01T12:34:05;2.10;;;0.95;;
63536;SDS011;49686;51.880;5.632;2022-09-01T12:37:01;0.98;;;0.70;;
63536;SDS011;49686;51.880;5.632;2022-09-01T12:39:33;2.15;;;1.10;;
63536;SDS011;49686;51.880;5.632;2022-09-01T12:42:11;2.22;;;0.70;;
63536;SDS011;49686;51.880;5.632;2022-09-01T12:44:49;3.22;;;0.90;;
63536;SDS011;49686;51.880;5.632;2022-09-01T12:53:00;1.98;;;1.27;;
63536;SDS011;49686;51.880;5.632;2022-09-01T12:55:31;1.67;;;0.90;;
63536;SDS011;49686;51.880;5.632;2022-09-01T12:58:18;2.60;;;0.73;;
63536;SDS011;49686;51.880;5.632;2022-09-01T13:00:53;2.22;;;0.77;;
63536;SDS011;49686;51.880;5.632;2022-09-01T13:03:23;0.95;;;0.70;;
63536;SDS011;49686;51.880;5.632;2022-09-01T13:05:52;3.15;;;1.33;;
63536;SDS011;49686;51.880;5.632;2022-09-01T13:08:20;3.55;;;1.00;;
63536;SDS011;49686;51.880;5.632;2022-09-01T13:10:51;2.60;;;0.80;;
63536;SDS011;49686;51.880;5.632;2022-09-01T13:13:20;5.25;;;1.00;;
63536;SDS011;49686;51.880;5.632;2022-09-01T13:15:48;4.05;;;0.80;;
63536;SDS011;49686;51.880;5.632;2022-09-01T13:18:17;3.25;;;1.00;;
63536;SDS011;49686;51.880;5.632;2022-09-01T13:20:47;4.25;;;1.30;;
63536;SDS011;49686;51.880;5.632;2022-09-01T13:23:15;4.77;;;0.70;;
63536;SDS011;49686;51.880;5.632;2022-09-01T13:25:43;2.47;;;0.90;;
63536;SDS011;49686;51.880;5.632;2022-09-01T13:28:12;1.77;;;0.80;;
63536;SDS011;49686;51.880;5.632;2022-09-01T13:30:40;1.95;;;0.77;;
63536;SDS011;49686;51.880;5.632;2022-09-01T13:33:09;3.33;;;0.80;;
63536;SDS011;49686;51.880;5.632;2022-09-01T13:35:46;4.05;;;0.80;;
63536;SDS011;49686;51.880;5.632;2022-09-01T13:38:14;3.08;;;0.82;;
63536;SDS011;49686;51.880;5.632;2022-09-01T13:40:41;1.92;;;1.10;;
63536;SDS011;49686;51.880;5.632;2022-09-01T13:43:08;3.03;;;1.02;;
63536;SDS011;49686;51.880;5.632;2022-09-01T13:48:05;3.47;;;0.98;;
63536;SDS011;49686;51.880;5.632;2022-09-01T13:50:51;2.78;;;0.80;;
63536;SDS011;49686;51.880;5.632;2022-09-01T13:53:37;5.13;;;1.10;;
63536;SDS011;49686;51.880;5.632;2022-09-01T13:56:05;4.18;;;1.20;;
63536;SDS011;49686;51.880;5.632;2022-09-01T13:58:32;1.17;;;0.73;;
63536;SDS011;49686;51.880;5.632;2022-09-01T14:01:00;6.53;;;1.00;;
63536;SDS011;49686;51.880;5.632;2022-09-01T14:03:28;9.68;;;1.15;;
63536;SDS011;49686;51.880;5.632;2022-09-01T14:05:54;3.55;;;0.70;;
63536;SDS011;49686;51.880;5.632;2022-09-01T14:08:21;3.03;;;0.75;;
63536;SDS011;49686;51.880;5.632;2022-09-01T14:10:49;8.65;;;0.80;;
63536;SDS011;49686;51.880;5.632;2022-09-01T14:13:18;6.28;;;0.70;;
63536;SDS011;49686;51.880;5.632;2022-09-01T14:15:47;5.22;;;0.82;;
63536;SDS011;49686;51.880;5.632;2022-09-01T14:18:16;4.70;;;1.50;;
63536;SDS011;49686;51.880;5.632;2022-09-01T14:20:44;6.20;;;1.33;;
63536;SDS011;49686;51.880;5.632;2022-09-01T14:23:13;8.00;;;1.10;;
63536;SDS011;49686;51.880;5.632;2022-09-01T14:25:42;0.70;;;0.65;;
63536;SDS011;49686;51.880;5.632;2022-09-01T14:28:09;4.03;;;1.13;;
63536;SDS011;49686;51.880;5.632;2022-09-01T14:30:38;1.73;;;1.00;;
63536;SDS011;49686;51.880;5.632;2022-09-01T14:33:06;2.13;;;1.13;;
63536;SDS011;49686;51.880;5.632;2022-09-01T14:35:37;1.83;;;0.70;;
63536;SDS011;49686;51.880;5.632;2022-09-01T14:38:04;2.55;;;1.00;;
63536;SDS011;49686;51.880;5.632;2022-09-01T14:40:32;8.15;;;0.90;;
63536;SDS011;49686;51.880;5.632;2022-09-01T14:42:59;5.18;;;0.90;;
63536;SDS011;49686;51.880;5.632;2022-09-01T14:45:26;3.97;;;1.20;;
63536;SDS011;49686;51.880;5.632;2022-09-01T14:47:55;8.77;;;1.10;;
63536;SDS011;49686;51.880;5.632;2022-09-01T14:50:23;15.52;;;1.38;;
63536;SDS011;49686;51.880;5.632;2022-09-01T14:52:53;1.80;;;0.93;;
63536;SDS011;49686;51.880;5.632;2022-09-01T14:55:21;4.93;;;1.55;;
63536;SDS011;49686;51.880;5.632;2022-09-01T15:00:17;3.28;;;0.90;;
63536;SDS011;49686;51.880;5.632;2022-09-01T15:02:45;3.78;;;1.08;;
63536;SDS011;49686;51.880;5.632;2022-09-01T15:05:13;8.82;;;1.33;;
63536;SDS011;49686;51.880;5.632;2022-09-01T15:07:40;3.92;;;0.80;;
63536;SDS011;49686;51.880;5.632;2022-09-01T15:10:10;2.70;;;1.00;;
63536;SDS011;49686;51.880;5.632;2022-09-01T15:12:50;4.43;;;1.00;;
63536;SDS011;49686;51.880;5.632;2022-09-01T15:15:18;4.07;;;1.20;;
63536;SDS011;49686;51.880;5.632;2022-09-01T15:17:45;11.85;;;1.63;;
63536;SDS011;49686;51.880;5.632;2022-09-01T15:20:12;6.25;;;1.17;;
63536;SDS011;49686;51.880;5.632;2022-09-01T15:22:40;10.15;;;1.50;;
63536;SDS011;49686;51.880;5.632;2022-09-01T15:25:07;2.20;;;1.00;;
63536;SDS011;49686;51.880;5.632;2022-09-01T15:27:35;10.38;;;1.17;;
63536;SDS011;49686;51.880;5.632;2022-09-01T15:30:07;5.65;;;0.73;;
63536;SDS011;49686;51.880;5.632;2022-09-01T15:32:36;9.07;;;0.93;;
63536;SDS011;49686;51.880;5.632;2022-09-01T15:35:03;8.20;;;1.25;;
63536;SDS011;49686;51.880;5.632;2022-09-01T15:37:30;1.10;;;1.00;;
63536;SDS011;49686;51.880;5.632;2022-09-01T15:39:57;1.33;;;0.98;;
63536;SDS011;49686;51.880;5.632;2022-09-01T15:42:24;6.03;;;1.33;;
63536;SDS011;49686;51.880;5.632;2022-09-01T15:44:53;1.98;;;0.80;;
63536;SDS011;49686;51.880;5.632;2022-09-01T15:47:22;5.30;;;1.25;;
63536;SDS011;49686;51.880;5.632;2022-09-01T15:49:49;2.20;;;0.95;;
63536;SDS011;49686;51.880;5.632;2022-09-01T15:52:16;1.83;;;1.30;;
63536;SDS011;49686;51.880;5.632;2022-09-01T15:54:43;4.50;;;1.15;;
63536;SDS011;49686;51.880;5.632;2022-09-01T15:57:10;1.80;;;1.15;;
63536;SDS011;49686;51.880;5.632;2022-09-01T15:59:37;4.18;;;1.20;;